Time;durP1;ratioP1;P1;durP2;ratioP2;P2;SDS_P1;SDS_P2;PMS_P1;PMS_P2;Temp;Humidity;BMP_temperature;BMP_pressure;BME280_temperature;BME280_humidity;BME280_pressure;Samples;Min_cycle;Max_cycle;Signal;HPM_P1;HPM_P2
2022/01/18 00:01:28;;;;;;;15.88;2.70;;;;;;;;;;4408330;32;20026;-53
2022/01/18 00:03:57;;;;;;;14.43;2.42;;;;;;;;;;4403885;32;20054;-51
2022/01/18 00:06:25;;;;;;;12.35;2.55;;;;;;;;;;4405891;32;20118;-51
2022/01/18 00:08:54;;;;;;;9.98;2.47;;;;;;;;;;4408788;32;20042;-52
2022/01/18 00:11:25;;;;;;;11.90;2.53;;;;;;;;;;4406664;32;20457;-52
2022/01/18 00:14:01;;;;;;;12.32;2.25;;;;;;;;;;4404068;32;20034;-53
2022/01/18 00:16:40;;;;;;;13.43;2.40;;;;;;;;;;4406045;32;21152;-52
2022/01/18 00:19:11;;;;;;;9.73;2.45;;;;;;;;;;4406969;32;20094;-52
2022/01/18 00:22:05;;;;;;;11.90;2.60;;;;;;;;;;4407475;32;20144;-50
2022/01/18 00:24:33;;;;;;;16.17;2.92;;;;;;;;;;4401791;32;20399;-50
2022/01/18 00:27:08;;;;;;;16.70;2.87;;;;;;;;;;4412508;32;20095;-53
2022/01/18 00:29:46;;;;;;;13.73;2.55;;;;;;;;;;4403153;32;20042;-50
2022/01/18 00:32:48;;;;;;;12.10;2.53;;;;;;;;;;4410054;32;20431;-52
2022/01/18 00:35:16;;;;;;;8.88;2.17;;;;;;;;;;4410799;32;20050;-53
2022/01/18 00:37:53;;;;;;;7.95;2.30;;;;;;;;;;4412509;32;20046;-52
2022/01/18 00:40:21;;;;;;;8.20;2.28;;;;;;;;;;4408124;32;20103;-53
2022/01/18 00:42:50;;;;;;;7.97;2.12;;;;;;;;;;4406492;32;20027;-51
2022/01/18 00:45:19;;;;;;;7.82;2.35;;;;;;;;;;4407341;32;20100;-53
2022/01/18 00:47:48;;;;;;;10.05;2.20;;;;;;;;;;4405911;32;20069;-50
2022/01/18 00:50:17;;;;;;;8.80;1.95;;;;;;;;;;4407257;32;20392;-49
2022/01/18 00:52:50;;;;;;;8.32;1.90;;;;;;;;;;4407642;32;20081;-50
2022/01/18 00:55:19;;;;;;;7.83;2.20;;;;;;;;;;4403801;32;20078;-50
2022/01/18 00:57:47;;;;;;;10.07;2.42;;;;;;;;;;4405758;32;20042;-50
2022/01/18 01:00:16;;;;;;;11.63;2.25;;;;;;;;;;4407396;32;20042;-50
2022/01/18 01:02:44;;;;;;;10.13;1.92;;;;;;;;;;4401668;32;20061;-52
2022/01/18 01:05:13;;;;;;;11.68;2.30;;;;;;;;;;4409769;32;20034;-50
2022/01/18 01:07:41;;;;;;;7.62;1.85;;;;;;;;;;4405674;32;20030;-50
2022/01/18 01:10:30;;;;;;;7.35;2.10;;;;;;;;;;4412316;32;20158;-52
2022/01/18 01:12:58;;;;;;;10.70;2.28;;;;;;;;;;4409775;32;20556;-54
2022/01/18 01:15:29;;;;;;;10.00;2.20;;;;;;;;;;4404218;32;20061;-50
2022/01/18 01:34:54;;;;;;;10.80;2.12;;;;;;;;;;4405403;32;20065;-53
2022/01/18 01:45:27;;;;;;;8.18;2.00;;;;;;;;;;4406276;32;20442;-50
2022/01/18 01:47:56;;;;;;;8.98;2.22;;;;;;;;;;4411178;32;20046;-50
2022/01/18 01:50:27;;;;;;;7.00;1.60;;;;;;;;;;4411109;32;20171;-52
2022/01/18 01:52:56;;;;;;;6.10;1.95;;;;;;;;;;4410371;32;20030;-50
2022/01/18 01:55:26;;;;;;;5.68;1.60;;;;;;;;;;4409558;32;20066;-52
2022/01/18 01:57:54;;;;;;;8.20;1.73;;;;;;;;;;4416122;32;20065;-50
2022/01/18 02:00:23;;;;;;;5.87;1.52;;;;;;;;;;4401071;32;20039;-51
2022/01/18 02:02:52;;;;;;;7.07;1.48;;;;;;;;;;4407928;32;20076;-50
2022/01/18 02:05:22;;;;;;;5.57;1.70;;;;;;;;;;4405312;32;20471;-52
2022/01/18 02:07:51;;;;;;;5.70;1.95;;;;;;;;;;4405354;32;20027;-52
2022/01/18 02:10:19;;;;;;;6.82;1.77;;;;;;;;;;4406006;32;20149;-52
2022/01/18 02:12:48;;;;;;;7.32;1.92;;;;;;;;;;4407777;32;20071;-50
2022/01/18 02:15:21;;;;;;;6.32;1.75;;;;;;;;;;4397836;32;20035;-51
2022/01/18 02:23:27;;;;;;;6.18;1.58;;;;;;;;;;4409252;32;20042;-50
2022/01/18 02:25:55;;;;;;;7.68;1.75;;;;;;;;;;4407949;32;20039;-50
2022/01/18 02:28:25;;;;;;;9.60;2.15;;;;;;;;;;4407966;32;20125;-51
2022/01/18 02:30:54;;;;;;;8.52;1.52;;;;;;;;;;4401780;32;20450;-51
2022/01/18 02:33:25;;;;;;;6.10;1.77;;;;;;;;;;4404262;32;20060;-50
2022/01/18 02:35:53;;;;;;;7.00;1.42;;;;;;;;;;4402416;32;20658;-52
2022/01/18 02:38:22;;;;;;;6.25;1.58;;;;;;;;;;4408956;32;20034;-50
2022/01/18 02:40:51;;;;;;;7.53;1.67;;;;;;;;;;4414288;32;20065;-49
2022/01/18 02:46:06;;;;;;;6.03;1.58;;;;;;;;;;4402520;32;20146;-49
2022/01/18 02:48:35;;;;;;;6.32;1.62;;;;;;;;;;4409405;32;20026;-49
2022/01/18 02:51:04;;;;;;;4.65;1.35;;;;;;;;;;4407662;32;20065;-49
2022/01/18 02:53:32;;;;;;;6.03;1.70;;;;;;;;;;4404484;32;20058;-52
2022/01/18 02:56:01;;;;;;;5.20;1.58;;;;;;;;;;4405393;32;20036;-52
2022/01/18 02:58:33;;;;;;;5.10;1.70;;;;;;;;;;4403409;32;20958;-49
2022/01/18 03:03:35;;;;;;;5.37;1.52;;;;;;;;;;4399887;32;20101;-50
2022/01/18 03:06:05;;;;;;;6.43;1.60;;;;;;;;;;4403847;32;20456;-50
2022/01/18 03:08:34;;;;;;;6.40;1.40;;;;;;;;;;4404865;32;20073;-52
2022/01/18 03:11:02;;;;;;;3.15;1.45;;;;;;;;;;4409806;32;20087;-50
2022/01/18 03:13:31;;;;;;;4.93;1.30;;;;;;;;;;4413243;32;20083;-49
2022/01/18 03:15:59;;;;;;;5.68;1.10;;;;;;;;;;4410847;32;20101;-50
2022/01/18 03:18:27;;;;;;;6.37;1.62;;;;;;;;;;4416273;32;20031;-51
2022/01/18 03:20:56;;;;;;;6.10;1.25;;;;;;;;;;4410104;32;20580;-50
2022/01/18 03:23:24;;;;;;;2.25;1.20;;;;;;;;;;4407858;32;20061;-49
2022/01/18 03:25:56;;;;;;;4.22;1.30;;;;;;;;;;4412511;32;20054;-50
2022/01/18 03:28:25;;;;;;;4.93;1.52;;;;;;;;;;4409484;32;20026;-49
2022/01/18 03:30:57;;;;;;;3.47;1.02;;;;;;;;;;4415614;32;20087;-52
2022/01/18 03:33:28;;;;;;;4.45;1.60;;;;;;;;;;4417143;32;20061;-49
2022/01/18 03:35:57;;;;;;;4.30;1.10;;;;;;;;;;4404865;32;20047;-50
2022/01/18 03:38:29;;;;;;;4.90;1.40;;;;;;;;;;4407704;32;20461;-49
2022/01/18 03:41:02;;;;;;;5.12;1.40;;;;;;;;;;4410435;32;20452;-52
2022/01/18 03:43:31;;;;;;;5.07;1.50;;;;;;;;;;4409275;32;20054;-49
2022/01/18 03:46:02;;;;;;;6.20;1.55;;;;;;;;;;4414571;32;20406;-50
2022/01/18 03:51:00;;;;;;;3.53;1.35;;;;;;;;;;4413271;32;20061;-50
2022/01/18 03:53:28;;;;;;;5.00;1.20;;;;;;;;;;4417408;32;20402;-49
2022/01/18 03:55:57;;;;;;;6.20;1.42;;;;;;;;;;4413779;32;20030;-49
2022/01/18 03:58:26;;;;;;;3.75;1.37;;;;;;;;;;4412054;32;20098;-50
2022/01/18 04:00:54;;;;;;;3.65;1.27;;;;;;;;;;4413415;32;20060;-50
2022/01/18 04:03:23;;;;;;;5.30;1.40;;;;;;;;;;4409328;32;20029;-50
2022/01/18 04:05:52;;;;;;;4.05;1.30;;;;;;;;;;4410520;32;20133;-50
2022/01/18 04:08:21;;;;;;;5.57;1.52;;;;;;;;;;4402327;32;20042;-50
2022/01/18 04:10:49;;;;;;;3.85;1.20;;;;;;;;;;4408104;32;20026;-50
2022/01/18 04:13:18;;;;;;;2.97;1.30;;;;;;;;;;4406047;32;20061;-52
2022/01/18 04:15:46;;;;;;;4.15;1.15;;;;;;;;;;4409090;32;20098;-50
2022/01/18 04:18:23;;;;;;;3.35;1.02;;;;;;;;;;4407204;32;20022;-49
2022/01/18 04:28:56;;;;;;;3.40;1.00;;;;;;;;;;4412388;32;20087;-50
2022/01/18 04:31:25;;;;;;;2.62;1.20;;;;;;;;;;4411011;32;20038;-50
2022/01/18 04:33:55;;;;;;;3.75;1.17;;;;;;;;;;4406407;32;20095;-51
2022/01/18 04:36:23;;;;;;;5.68;1.55;;;;;;;;;;4403307;32;20088;-49
2022/01/18 04:38:52;;;;;;;3.62;1.40;;;;;;;;;;4416587;32;20039;-49
2022/01/18 04:41:27;;;;;;;3.42;1.10;;;;;;;;;;4419789;32;20034;-51
2022/01/18 04:49:16;;;;;;;1.75;1.10;;;;;;;;;;4404532;32;20122;-50
2022/01/18 04:51:46;;;;;;;5.43;1.37;;;;;;;;;;4405039;32;20346;-49
2022/01/18 04:54:16;;;;;;;3.70;1.30;;;;;;;;;;4407227;32;20049;-52
2022/01/18 04:59:13;;;;;;;2.55;1.30;;;;;;;;;;4408301;32;20030;-50
2022/01/18 05:01:42;;;;;;;5.07;1.40;;;;;;;;;;4409166;32;20079;-49
2022/01/18 05:04:11;;;;;;;2.83;0.82;;;;;;;;;;4412989;32;20135;-50
2022/01/18 05:06:42;;;;;;;3.45;1.10;;;;;;;;;;4405630;32;20074;-51
2022/01/18 05:09:11;;;;;;;1.80;0.82;;;;;;;;;;4414248;32;20107;-53
2022/01/18 05:11:52;;;;;;;1.87;0.90;;;;;;;;;;4403854;32;20410;-50
2022/01/18 05:14:28;;;;;;;3.47;0.98;;;;;;;;;;4411663;32;20093;-50
2022/01/18 05:17:05;;;;;;;1.87;0.90;;;;;;;;;;4402174;32;20034;-52
2022/01/18 05:19:45;;;;;;;3.12;1.00;;;;;;;;;;4413283;32;20054;-52
2022/01/18 05:25:01;;;;;;;2.65;0.90;;;;;;;;;;4410692;32;20126;-49
2022/01/18 05:27:30;;;;;;;2.50;1.00;;;;;;;;;;4414292;32;20044;-53
2022/01/18 05:29:58;;;;;;;3.08;1.12;;;;;;;;;;4405386;32;20438;-52
2022/01/18 05:32:26;;;;;;;3.75;0.98;;;;;;;;;;4410993;32;20084;-52
2022/01/18 05:34:55;;;;;;;3.10;1.08;;;;;;;;;;4410942;32;20038;-50
2022/01/18 05:37:23;;;;;;;3.08;0.98;;;;;;;;;;4408936;32;20111;-53
2022/01/18 05:39:52;;;;;;;2.75;1.15;;;;;;;;;;4417333;32;20076;-52
2022/01/18 05:42:20;;;;;;;2.65;1.20;;;;;;;;;;4409171;32;20080;-53
2022/01/18 05:44:49;;;;;;;2.53;1.15;;;;;;;;;;4412406;32;20039;-51
2022/01/18 05:47:17;;;;;;;2.85;0.90;;;;;;;;;;4406405;32;20101;-53
2022/01/18 05:49:46;;;;;;;3.95;0.80;;;;;;;;;;4411537;32;20039;-52
2022/01/18 05:52:14;;;;;;;3.35;0.90;;;;;;;;;;4413047;32;20075;-50
2022/01/18 05:54:42;;;;;;;2.78;1.37;;;;;;;;;;4403621;32;20046;-52
2022/01/18 05:57:11;;;;;;;1.75;1.08;;;;;;;;;;4410333;32;20073;-51
2022/01/18 05:59:44;;;;;;;1.80;0.70;;;;;;;;;;4412992;32;20503;-50
2022/01/18 06:02:24;;;;;;;;;;;;;;;;;;4412929;32;20035;-52
2022/01/18 06:07:41;;;;;;;1.87;0.90;;;;;;;;;;4404033;32;20117;-52
2022/01/18 06:10:10;;;;;;;1.65;1.10;;;;;;;;;;4410712;32;20026;-53
2022/01/18 06:12:39;;;;;;;2.42;1.00;;;;;;;;;;4417032;32;20365;-51
2022/01/18 06:15:08;;;;;;;2.60;1.10;;;;;;;;;;4411524;32;20082;-53
2022/01/18 06:17:38;;;;;;;3.17;1.12;;;;;;;;;;4409278;32;20054;-52
2022/01/18 06:20:07;;;;;;;1.73;1.10;;;;;;;;;;4409048;32;20108;-51
2022/01/18 06:22:35;;;;;;;2.33;0.77;;;;;;;;;;4410828;32;20096;-50
2022/01/18 06:25:04;;;;;;;1.65;0.80;;;;;;;;;;4408231;32;20038;-50
2022/01/18 06:27:33;;;;;;;1.60;0.82;;;;;;;;;;4412093;32;20046;-50
2022/01/18 06:30:01;;;;;;;1.98;1.05;;;;;;;;;;4420983;32;20119;-50
2022/01/18 06:32:29;;;;;;;2.20;0.90;;;;;;;;;;4416602;32;20045;-51
2022/01/18 06:34:58;;;;;;;3.10;1.00;;;;;;;;;;4410964;32;20039;-52
2022/01/18 06:37:26;;;;;;;1.87;0.90;;;;;;;;;;4409982;32;20091;-51
2022/01/18 06:39:57;;;;;;;1.50;0.90;;;;;;;;;;4408332;32;20087;-51
2022/01/18 06:42:26;;;;;;;2.17;0.90;;;;;;;;;;4420847;32;20038;-50
2022/01/18 06:44:54;;;;;;;3.70;0.98;;;;;;;;;;4421141;32;20031;-52
2022/01/18 06:47:23;;;;;;;1.12;0.85;;;;;;;;;;4409550;32;20042;-51
2022/01/18 06:49:51;;;;;;;2.70;1.00;;;;;;;;;;4410301;32;20123;-51
2022/01/18 06:52:19;;;;;;;1.52;0.90;;;;;;;;;;4418691;32;20102;-53
2022/01/18 06:54:48;;;;;;;2.10;0.80;;;;;;;;;;4410816;32;20070;-53
2022/01/18 06:57:16;;;;;;;2.37;0.75;;;;;;;;;;4409692;32;20070;-53
2022/01/18 06:59:44;;;;;;;1.85;0.80;;;;;;;;;;4415442;32;20086;-50
2022/01/18 07:02:13;;;;;;;2.03;0.90;;;;;;;;;;4414257;32;20039;-53
2022/01/18 07:04:42;;;;;;;1.58;0.90;;;;;;;;;;4413365;32;20042;-50
2022/01/18 07:07:10;;;;;;;1.33;1.00;;;;;;;;;;4414300;32;20490;-50
2022/01/18 07:09:38;;;;;;;2.12;0.90;;;;;;;;;;4412389;32;20087;-50
2022/01/18 07:12:10;;;;;;;2.17;0.90;;;;;;;;;;4418202;32;20047;-52
2022/01/18 07:14:39;;;;;;;1.23;0.82;;;;;;;;;;4415460;32;20045;-50
2022/01/18 07:17:08;;;;;;;3.47;0.95;;;;;;;;;;4417477;32;20144;-51
2022/01/18 07:19:38;;;;;;;3.15;1.02;;;;;;;;;;4415528;32;20377;-54
2022/01/18 07:22:06;;;;;;;2.60;0.93;;;;;;;;;;4405994;32;20063;-51
2022/01/18 07:24:43;;;;;;;1.80;0.88;;;;;;;;;;4409390;32;20084;-52
2022/01/18 07:27:13;;;;;;;1.92;0.90;;;;;;;;;;4405565;32;20034;-53
2022/01/18 07:29:42;;;;;;;0.85;0.82;;;;;;;;;;4408977;32;20069;-54
2022/01/18 07:32:11;;;;;;;1.33;0.80;;;;;;;;;;4417100;32;20099;-51
2022/01/18 07:34:48;;;;;;;1.87;0.90;;;;;;;;;;4413503;32;20042;-50
2022/01/18 07:37:17;;;;;;;1.37;0.90;;;;;;;;;;4412624;32;20046;-51
2022/01/18 07:39:49;;;;;;;2.62;1.00;;;;;;;;;;4402080;32;20030;-51
2022/01/18 07:42:18;;;;;;;1.87;0.90;;;;;;;;;;4406730;32;20060;-51
2022/01/18 07:44:46;;;;;;;2.05;0.80;;;;;;;;;;4412368;32;20103;-53
2022/01/18 07:47:15;;;;;;;1.30;0.70;;;;;;;;;;4416580;32;20042;-52
2022/01/18 07:49:45;;;;;;;2.60;1.15;;;;;;;;;;4410274;32;20054;-50
2022/01/18 07:52:16;;;;;;;1.70;1.05;;;;;;;;;;4408900;32;20061;-52
2022/01/18 07:54:44;;;;;;;1.52;0.80;;;;;;;;;;4407769;32;20034;-52
2022/01/18 07:57:14;;;;;;;1.83;0.90;;;;;;;;;;4414369;32;20414;-50
2022/01/18 07:59:43;;;;;;;1.50;0.80;;;;;;;;;;4410468;32;20059;-51
2022/01/18 08:02:12;;;;;;;1.73;0.80;;;;;;;;;;4410694;32;20064;-50
2022/01/18 08:04:41;;;;;;;1.98;0.90;;;;;;;;;;4421555;32;20081;-50
2022/01/18 08:07:09;;;;;;;2.15;0.90;;;;;;;;;;4418280;32;20113;-52
2022/01/18 08:09:38;;;;;;;0.93;0.73;;;;;;;;;;4405421;32;20124;-52
2022/01/18 08:12:07;;;;;;;1.50;0.70;;;;;;;;;;4412783;32;20031;-50
2022/01/18 08:14:41;;;;;;;1.95;0.88;;;;;;;;;;4402212;32;20061;-51
2022/01/18 08:17:10;;;;;;;;;;;;;;;;;;4417408;32;20069;-51
2022/01/18 08:19:39;;;;;;;2.85;0.93;;;;;;;;;;4410494;32;20313;-53
2022/01/18 08:22:09;;;;;;;5.18;0.90;;;;;;;;;;4408186;32;20049;-52
2022/01/18 08:24:38;;;;;;;3.53;0.80;;;;;;;;;;4405627;32;20453;-51
2022/01/18 08:27:06;;;;;;;1.12;0.70;;;;;;;;;;4411634;32;20046;-51
2022/01/18 08:29:36;;;;;;;2.00;0.75;;;;;;;;;;4408942;32;20042;-50
2022/01/18 08:32:16;;;;;;;1.95;0.70;;;;;;;;;;4408186;32;20050;-53
2022/01/18 08:34:44;;;;;;;1.67;0.73;;;;;;;;;;4412006;32;20030;-50
2022/01/18 08:37:12;;;;;;;2.75;0.70;;;;;;;;;;4410523;32;20494;-51
2022/01/18 08:39:41;;;;;;;4.55;0.80;;;;;;;;;;4408500;32;20567;-50
2022/01/18 08:42:10;;;;;;;0.93;0.80;;;;;;;;;;4413487;32;20417;-51
2022/01/18 08:44:42;;;;;;;1.15;0.77;;;;;;;;;;4402869;32;20043;-53
2022/01/18 08:47:13;;;;;;;1.60;0.75;;;;;;;;;;4403625;32;20104;-50
2022/01/18 08:49:41;;;;;;;1.45;0.88;;;;;;;;;;4410997;32;20048;-53
2022/01/18 08:52:09;;;;;;;1.10;0.80;;;;;;;;;;4410702;32;20030;-52
2022/01/18 08:54:39;;;;;;;1.90;0.70;;;;;;;;;;4412576;32;20054;-53
2022/01/18 08:57:07;;;;;;;2.28;0.65;;;;;;;;;;4410484;32;20084;-51
2022/01/18 08:59:36;;;;;;;1.40;0.70;;;;;;;;;;4408548;32;20498;-52
2022/01/18 09:02:05;;;;;;;2.45;0.80;;;;;;;;;;4412346;32;20409;-53
2022/01/18 09:04:34;;;;;;;1.65;0.75;;;;;;;;;;4414005;32;20126;-54
2022/01/18 09:07:07;;;;;;;1.48;0.70;;;;;;;;;;4408701;32;20026;-50
2022/01/18 09:09:38;;;;;;;1.85;0.60;;;;;;;;;;4407005;32;20058;-48
2022/01/18 09:12:07;;;;;;;1.90;0.70;;;;;;;;;;4411897;32;20058;-52
2022/01/18 09:14:37;;;;;;;1.70;0.90;;;;;;;;;;4407999;32;20092;-48
2022/01/18 09:17:06;;;;;;;1.95;0.73;;;;;;;;;;4407767;32;20038;-49
2022/01/18 09:19:35;;;;;;;1.80;0.80;;;;;;;;;;4412718;32;20046;-50
2022/01/18 09:22:03;;;;;;;1.70;0.95;;;;;;;;;;4409081;32;20055;-49
2022/01/18 09:24:32;;;;;;;1.65;0.88;;;;;;;;;;4406119;32;20112;-50
2022/01/18 09:27:01;;;;;;;1.62;0.60;;;;;;;;;;4415234;32;20064;-50
2022/01/18 09:29:30;;;;;;;6.10;0.70;;;;;;;;;;4408616;32;20031;-49
2022/01/18 09:31:58;;;;;;;1.37;0.60;;;;;;;;;;4414230;32;20093;-51
2022/01/18 09:34:27;;;;;;;0.95;0.60;;;;;;;;;;4415016;32;20086;-51
2022/01/18 09:36:56;;;;;;;1.58;0.45;;;;;;;;;;4408134;32;20061;-53
2022/01/18 09:39:25;;;;;;;1.42;0.70;;;;;;;;;;4402586;32;20046;-51
2022/01/18 09:41:57;;;;;;;2.87;0.70;;;;;;;;;;4408797;32;20042;-53
2022/01/18 09:44:26;;;;;;;2.78;0.93;;;;;;;;;;4407408;32;20034;-51
2022/01/18 09:46:54;;;;;;;2.15;0.70;;;;;;;;;;4409296;32;20034;-50
2022/01/18 09:49:24;;;;;;;3.00;1.00;;;;;;;;;;4401650;32;20045;-52
2022/01/18 09:51:53;;;;;;;1.55;0.70;;;;;;;;;;4408813;32;20057;-51
2022/01/18 09:54:21;;;;;;;2.20;0.75;;;;;;;;;;4406690;32;20035;-52
2022/01/18 09:56:49;;;;;;;1.62;0.80;;;;;;;;;;4413720;32;20385;-50
2022/01/18 09:59:18;;;;;;;0.80;0.52;;;;;;;;;;4410027;32;20023;-50
2022/01/18 10:01:47;;;;;;;1.52;0.70;;;;;;;;;;4407169;32;20026;-52
2022/01/18 10:04:20;;;;;;;2.70;0.65;;;;;;;;;;4410166;32;20392;-49
2022/01/18 10:06:50;;;;;;;2.90;0.75;;;;;;;;;;4420856;32;20043;-51
2022/01/18 10:09:20;;;;;;;1.75;0.70;;;;;;;;;;4418430;32;20030;-49
2022/01/18 10:12:10;;;;;;;1.10;0.70;;;;;;;;;;4405257;32;20072;-50
2022/01/18 10:14:58;;;;;;;2.92;0.82;;;;;;;;;;4411015;32;20047;-48
2022/01/18 10:17:34;;;;;;;1.05;0.70;;;;;;;;;;4402701;32;20055;-50
2022/01/18 10:20:14;;;;;;;0.65;0.60;;;;;;;;;;4403478;32;20099;-50
2022/01/18 10:22:48;;;;;;;1.60;0.60;;;;;;;;;;4405957;32;20436;-50
2022/01/18 10:25:18;;;;;;;1.00;0.73;;;;;;;;;;4406320;32;20076;-49
2022/01/18 10:27:49;;;;;;;1.37;0.70;;;;;;;;;;4405934;32;20067;-48
2022/01/18 10:30:31;;;;;;;0.82;0.70;;;;;;;;;;4409753;32;20054;-51
2022/01/18 10:33:11;;;;;;;2.25;0.80;;;;;;;;;;4403579;32;20082;-52
2022/01/18 10:35:59;;;;;;;2.53;0.65;;;;;;;;;;4408508;32;20089;-49
2022/01/18 10:38:27;;;;;;;1.55;0.80;;;;;;;;;;4422630;32;20089;-51
2022/01/18 10:40:56;;;;;;;1.50;0.75;;;;;;;;;;4412908;32;20080;-50
2022/01/18 10:43:28;;;;;;;2.17;0.73;;;;;;;;;;4418433;32;20038;-50
2022/01/18 10:46:13;;;;;;;5.72;0.80;;;;;;;;;;4409458;32;21159;-50
2022/01/18 10:48:46;;;;;;;1.42;0.75;;;;;;;;;;4408474;32;20073;-49
2022/01/18 10:51:30;;;;;;;1.98;0.75;;;;;;;;;;4410969;32;20034;-52
2022/01/18 10:53:59;;;;;;;1.47;0.70;;;;;;;;;;4407487;32;20046;-51
2022/01/18 10:56:37;;;;;;;1.15;0.70;;;;;;;;;;4411327;32;20022;-50
2022/01/18 10:59:05;;;;;;;1.90;0.70;;;;;;;;;;4412459;32;20118;-50
2022/01/18 11:01:34;;;;;;;1.65;0.50;;;;;;;;;;4412883;32;20083;-49
2022/01/18 11:04:07;;;;;;;1.70;0.62;;;;;;;;;;4412468;32;20123;-52
2022/01/18 11:06:36;;;;;;;1.70;0.60;;;;;;;;;;4397611;32;20045;-51
2022/01/18 11:09:09;;;;;;;2.45;0.70;;;;;;;;;;4409868;32;20469;-51
2022/01/18 11:11:42;;;;;;;3.28;0.60;;;;;;;;;;4412655;32;20066;-50
2022/01/18 11:14:11;;;;;;;0.88;0.60;;;;;;;;;;4414253;32;20060;-49
2022/01/18 11:16:43;;;;;;;1.00;0.65;;;;;;;;;;4415768;32;20039;-49
2022/01/18 11:19:28;;;;;;;1.40;0.68;;;;;;;;;;4410051;32;20289;-50
2022/01/18 11:21:58;;;;;;;1.20;0.65;;;;;;;;;;4411181;32;20034;-49
2022/01/18 11:24:28;;;;;;;0.98;0.60;;;;;;;;;;4411011;32;20082;-49
2022/01/18 11:26:58;;;;;;;1.70;0.70;;;;;;;;;;4411729;32;20105;-53
2022/01/18 11:29:26;;;;;;;0.98;0.70;;;;;;;;;;4403808;32;20046;-50
2022/01/18 11:31:56;;;;;;;1.70;0.90;;;;;;;;;;4417347;32;20101;-53
2022/01/18 11:34:29;;;;;;;1.17;0.77;;;;;;;;;;4411218;32;20060;-53
2022/01/18 11:37:03;;;;;;;4.87;0.73;;;;;;;;;;4414511;32;20043;-50
2022/01/18 11:39:32;;;;;;;0.60;0.60;;;;;;;;;;4407394;32;20063;-50
2022/01/18 11:42:08;;;;;;;2.40;1.02;;;;;;;;;;4407229;32;20092;-51
2022/01/18 11:44:36;;;;;;;3.15;0.80;;;;;;;;;;4407479;32;20054;-49
2022/01/18 11:47:05;;;;;;;1.83;0.90;;;;;;;;;;4409326;32;20083;-51
2022/01/18 11:49:34;;;;;;;6.35;0.90;;;;;;;;;;4417969;32;20101;-50
2022/01/18 11:52:11;;;;;;;4.50;0.80;;;;;;;;;;4412253;32;20090;-49
2022/01/18 11:54:43;;;;;;;2.65;0.70;;;;;;;;;;4410368;32;20039;-50
2022/01/18 11:57:23;;;;;;;3.22;0.75;;;;;;;;;;4410013;32;20059;-52
2022/01/18 11:59:55;;;;;;;2.00;0.70;;;;;;;;;;4409865;32;20588;-50
2022/01/18 12:02:28;;;;;;;1.90;0.77;;;;;;;;;;4419450;32;20094;-53
2022/01/18 12:05:06;;;;;;;3.45;0.43;;;;;;;;;;4409449;32;20051;-50
2022/01/18 12:07:34;;;;;;;2.12;0.70;;;;;;;;;;4415237;32;20121;-49
2022/01/18 12:10:08;;;;;;;2.28;0.90;;;;;;;;;;4415575;32;20074;-51
2022/01/18 12:12:40;;;;;;;2.10;0.65;;;;;;;;;;4400809;32;20044;-50
2022/01/18 12:15:18;;;;;;;1.87;0.80;;;;;;;;;;4405476;32;20084;-50
2022/01/18 12:17:51;;;;;;;5.15;0.85;;;;;;;;;;4406656;32;20023;-50
2022/01/18 12:20:43;;;;;;;2.72;0.77;;;;;;;;;;4415594;32;20046;-51
2022/01/18 12:23:13;;;;;;;1.35;0.70;;;;;;;;;;4411320;32;20391;-52
2022/01/18 12:25:56;;;;;;;3.65;0.62;;;;;;;;;;4408744;32;20109;-51
2022/01/18 12:28:46;;;;;;;1.98;0.70;;;;;;;;;;4409211;32;20042;-51
2022/01/18 12:31:41;;;;;;;3.45;0.77;;;;;;;;;;4409663;32;20042;-50
2022/01/18 12:34:31;;;;;;;3.47;0.75;;;;;;;;;;4416846;32;20046;-51
2022/01/18 12:37:11;;;;;;;1.50;0.75;;;;;;;;;;4409656;32;20077;-54
2022/01/18 12:39:57;;;;;;;2.60;0.70;;;;;;;;;;4411958;32;20413;-50
2022/01/18 12:45:19;;;;;;;4.15;0.90;;;;;;;;;;4409126;32;20143;-53
2022/01/18 12:47:49;;;;;;;2.55;0.80;;;;;;;;;;4412039;32;20036;-50
2022/01/18 12:50:21;;;;;;;3.15;0.85;;;;;;;;;;4411243;32;20042;-51
2022/01/18 12:52:52;;;;;;;4.00;0.75;;;;;;;;;;4406096;32;20051;-52
2022/01/18 12:55:26;;;;;;;1.37;0.70;;;;;;;;;;4410646;32;20094;-52
2022/01/18 12:58:18;;;;;;;1.95;0.70;;;;;;;;;;4410667;32;20374;-51
2022/01/18 13:00:47;;;;;;;2.65;0.65;;;;;;;;;;4400618;32;20026;-50
2022/01/18 13:03:17;;;;;;;1.85;0.70;;;;;;;;;;4403356;32;20039;-51
2022/01/18 13:05:46;;;;;;;7.15;0.93;;;;;;;;;;4406889;32;20047;-51
2022/01/18 13:08:16;;;;;;;1.75;0.62;;;;;;;;;;4409669;32;20099;-50
2022/01/18 13:10:46;;;;;;;2.72;0.80;;;;;;;;;;4411992;32;20022;-50
2022/01/18 13:13:16;;;;;;;2.15;0.60;;;;;;;;;;4409799;32;20064;-50
2022/01/18 13:16:06;;;;;;;2.75;0.68;;;;;;;;;;4412505;32;20109;-50
2022/01/18 13:26:49;;;;;;;1.92;0.98;;;;;;;;;;4406757;32;20090;-50
2022/01/18 13:29:19;;;;;;;1.27;0.70;;;;;;;;;;4410939;32;20099;-54
2022/01/18 13:32:01;;;;;;;2.58;0.90;;;;;;;;;;4413695;32;20030;-50
2022/01/18 13:34:31;;;;;;;3.05;0.93;;;;;;;;;;4416694;32;20027;-51
2022/01/18 13:37:02;;;;;;;2.47;0.75;;;;;;;;;;4417302;32;20362;-53
2022/01/18 13:39:40;;;;;;;3.70;0.90;;;;;;;;;;4402660;32;20512;-50
2022/01/18 13:42:11;;;;;;;2.47;0.90;;;;;;;;;;4413695;32;20034;-49
2022/01/18 13:44:41;;;;;;;2.30;0.70;;;;;;;;;;4407867;32;20057;-50
2022/01/18 13:47:19;;;;;;;3.55;0.90;;;;;;;;;;4413563;32;20039;-50
2022/01/18 13:49:48;;;;;;;2.25;0.80;;;;;;;;;;4407475;32;20065;-50
2022/01/18 13:52:17;;;;;;;2.25;0.60;;;;;;;;;;4407557;32;20034;-50
2022/01/18 13:54:46;;;;;;;1.67;0.88;;;;;;;;;;4409635;32;20038;-50
2022/01/18 13:57:15;;;;;;;3.25;0.93;;;;;;;;;;4410387;32;20073;-50
2022/01/18 13:59:45;;;;;;;3.33;0.98;;;;;;;;;;4405695;32;20038;-52
2022/01/18 14:02:15;;;;;;;3.08;0.95;;;;;;;;;;4413367;32;20064;-51
2022/01/18 14:04:45;;;;;;;3.22;0.98;;;;;;;;;;4400893;32;20082;-52
2022/01/18 14:07:14;;;;;;;3.40;1.15;;;;;;;;;;4403989;32;20069;-50
2022/01/18 14:09:42;;;;;;;2.78;0.70;;;;;;;;;;4417744;32;20420;-51
2022/01/18 14:12:19;;;;;;;2.22;0.90;;;;;;;;;;4411350;32;20030;-50
2022/01/18 14:14:47;;;;;;;1.52;0.75;;;;;;;;;;4408053;32;20485;-50
2022/01/18 14:17:16;;;;;;;4.18;1.00;;;;;;;;;;4419936;32;20045;-51
2022/01/18 14:19:46;;;;;;;2.17;0.88;;;;;;;;;;4420320;32;20042;-50
2022/01/18 14:22:16;;;;;;;1.40;0.73;;;;;;;;;;4412010;32;20487;-53
2022/01/18 14:24:45;;;;;;;2.33;0.90;;;;;;;;;;4412303;32;20043;-52
2022/01/18 14:27:25;;;;;;;1.98;0.88;;;;;;;;;;4411590;32;20086;-50
2022/01/18 14:29:58;;;;;;;3.25;1.02;;;;;;;;;;4417615;32;20119;-52
2022/01/18 14:32:30;;;;;;;3.95;0.98;;;;;;;;;;4411462;32;20073;-51
2022/01/18 14:35:00;;;;;;;2.28;0.60;;;;;;;;;;4407985;32;20090;-50
2022/01/18 14:37:38;;;;;;;2.45;0.80;;;;;;;;;;4413695;32;20057;-51
2022/01/18 14:40:13;;;;;;;2.50;0.80;;;;;;;;;;4413899;32;20031;-50
2022/01/18 14:42:55;;;;;;;2.55;0.80;;;;;;;;;;4409803;32;20089;-50
2022/01/18 14:47:54;;;;;;;1.98;0.73;;;;;;;;;;4412590;32;20390;-49
2022/01/18 14:50:23;;;;;;;4.72;0.70;;;;;;;;;;4418436;32;20055;-50
2022/01/18 14:52:52;;;;;;;2.10;0.85;;;;;;;;;;4415051;32;20109;-50
2022/01/18 14:55:21;;;;;;;1.48;0.98;;;;;;;;;;4412430;32;20122;-53
2022/01/18 14:57:50;;;;;;;2.67;0.85;;;;;;;;;;4411728;32;20069;-50
2022/01/18 15:00:19;;;;;;;2.70;0.77;;;;;;;;;;4418541;32;20043;-50
2022/01/18 15:02:48;;;;;;;3.00;0.80;;;;;;;;;;4408817;32;20094;-50
2022/01/18 15:05:17;;;;;;;3.50;0.90;;;;;;;;;;4412807;32;20061;-52
2022/01/18 15:07:46;;;;;;;2.15;0.85;;;;;;;;;;4415304;32;20436;-50
2022/01/18 15:10:14;;;;;;;3.03;1.10;;;;;;;;;;4411050;32;20074;-50
2022/01/18 15:12:44;;;;;;;3.97;1.05;;;;;;;;;;4405108;32;20045;-51
2022/01/18 15:15:14;;;;;;;4.15;1.17;;;;;;;;;;4408319;32;20212;-50
2022/01/18 15:17:43;;;;;;;2.30;0.93;;;;;;;;;;4415370;32;20061;-51
2022/01/18 15:20:12;;;;;;;2.55;0.75;;;;;;;;;;4412871;32;20042;-53
2022/01/18 15:22:41;;;;;;;3.83;1.12;;;;;;;;;;4415554;32;20054;-52
2022/01/18 15:25:10;;;;;;;5.03;0.70;;;;;;;;;;4410609;32;20403;-53
2022/01/18 15:27:38;;;;;;;4.57;1.27;;;;;;;;;;4418697;32;20432;-51
2022/01/18 15:30:10;;;;;;;1.25;0.70;;;;;;;;;;4414249;32;20074;-51
2022/01/18 15:32:40;;;;;;;2.60;0.90;;;;;;;;;;4416540;32;20064;-53
2022/01/18 15:35:10;;;;;;;2.47;0.77;;;;;;;;;;4409605;32;20375;-50
2022/01/18 15:37:39;;;;;;;5.22;1.10;;;;;;;;;;4409260;32;20404;-51
2022/01/18 15:40:08;;;;;;;3.25;0.88;;;;;;;;;;4413598;32;20053;-51
2022/01/18 15:42:37;;;;;;;2.03;1.10;;;;;;;;;;4410981;32;20369;-48
2022/01/18 15:45:06;;;;;;;1.48;0.90;;;;;;;;;;4418080;32;20038;-51
2022/01/18 15:47:34;;;;;;;2.00;1.00;;;;;;;;;;4414094;32;20098;-48
2022/01/18 15:50:04;;;;;;;3.42;1.00;;;;;;;;;;4418371;32;20042;-50
2022/01/18 15:52:33;;;;;;;2.80;0.80;;;;;;;;;;4414773;32;20035;-51
2022/01/18 15:55:02;;;;;;;2.33;1.05;;;;;;;;;;4407200;32;20060;-50
2022/01/18 15:57:31;;;;;;;2.90;0.95;;;;;;;;;;4418730;32;20462;-50
2022/01/18 15:59:59;;;;;;;4.55;1.10;;;;;;;;;;4413406;32;20166;-52
2022/01/18 16:02:28;;;;;;;4.37;0.93;;;;;;;;;;4405506;32;20050;-52
2022/01/18 16:04:57;;;;;;;3.92;0.90;;;;;;;;;;4407971;32;20031;-51
2022/01/18 16:07:25;;;;;;;2.25;0.90;;;;;;;;;;4410549;32;20035;-52
2022/01/18 16:09:54;;;;;;;3.60;1.05;;;;;;;;;;4408299;32;20153;-53
2022/01/18 16:12:22;;;;;;;2.58;0.70;;;;;;;;;;4404037;32;20432;-50
2022/01/18 16:14:52;;;;;;;2.40;0.80;;;;;;;;;;4413692;32;20031;-50
2022/01/18 16:17:21;;;;;;;3.42;0.88;;;;;;;;;;4406248;32;20481;-55
2022/01/18 16:19:49;;;;;;;1.83;1.00;;;;;;;;;;4409067;32;20030;-53